createdAt,value
2023-03-13T00:00:14.868Z,7.85
2023-03-13T00:02:35.002Z,8.27
2023-03-13T00:04:55.123Z,8.05
2023-03-13T00:07:15.432Z,8.10
2023-03-13T00:09:35.816Z,8.07
2023-03-13T00:11:56.039Z,8.35
2023-03-13T00:14:16.174Z,8.70
2023-03-13T00:16:48.670Z,7.88
2023-03-13T00:19:09.017Z,6.35
2023-03-13T00:21:30.651Z,7.00
2023-03-13T00:23:51.010Z,8.43
2023-03-13T00:26:13.210Z,9.43
2023-03-13T00:28:34.186Z,10.27
2023-03-13T00:31:00.747Z,9.23
2023-03-13T00:33:20.957Z,9.07
2023-03-13T00:35:41.203Z,8.63
2023-03-13T00:38:01.416Z,8.45
2023-03-13T00:40:21.456Z,6.60
2023-03-13T00:42:41.702Z,7.70
2023-03-13T00:45:01.895Z,8.00
2023-03-13T00:47:22.067Z,7.32
2023-03-13T00:49:42.169Z,6.97
2023-03-13T00:52:02.192Z,8.25
2023-03-13T00:54:22.320Z,6.65
2023-03-13T00:56:42.432Z,8.38
2023-03-13T00:59:02.914Z,8.38
2023-03-13T01:01:23.242Z,10.43
2023-03-13T01:03:44.293Z,8.18
2023-03-13T01:06:06.657Z,7.68
2023-03-13T01:08:27.318Z,7.87
2023-03-13T01:10:47.457Z,8.32
2023-03-13T01:13:07.520Z,8.18
2023-03-13T01:15:27.578Z,7.78
2023-03-13T01:17:47.802Z,7.97
2023-03-13T01:20:08.955Z,6.25
2023-03-13T01:22:29.286Z,7.07
2023-03-13T01:24:51.780Z,7.47
2023-03-13T01:27:20.907Z,9.95
2023-03-13T01:29:41.315Z,8.43
2023-03-13T01:32:01.737Z,8.95
2023-03-13T01:34:21.965Z,7.95
2023-03-13T01:36:43.081Z,8.10
2023-03-13T01:39:03.487Z,8.23
2023-03-13T01:41:24.319Z,8.93
2023-03-13T01:43:45.049Z,7.60
2023-03-13T01:46:05.107Z,9.32
2023-03-13T01:48:48.560Z,7.18
2023-03-13T01:53:31.320Z,8.82
2023-03-13T01:55:52.610Z,7.82
2023-03-13T01:58:12.650Z,7.20
2023-03-13T02:00:34.659Z,6.70
2023-03-13T02:02:56.768Z,6.35
2023-03-13T02:05:20.464Z,6.43
2023-03-13T02:07:42.097Z,8.18
2023-03-13T02:10:02.162Z,8.00
2023-03-13T02:12:35.957Z,9.55
2023-03-13T02:14:57.637Z,7.55
2023-03-13T02:17:17.980Z,7.30
2023-03-13T02:19:43.415Z,7.70
2023-03-13T02:22:22.811Z,8.57
2023-03-13T02:24:45.982Z,7.80
2023-03-13T02:27:06.560Z,8.52
2023-03-13T02:29:27.372Z,8.50
2023-03-13T02:31:48.152Z,9.77
2023-03-13T02:34:08.090Z,8.32
2023-03-13T02:36:29.623Z,8.15
2023-03-13T02:38:55.415Z,8.75
2023-03-13T02:41:16.312Z,10.25
2023-03-13T02:43:37.378Z,8.98
2023-03-13T02:46:05.268Z,8.23
2023-03-13T02:48:32.685Z,7.35
2023-03-13T02:50:52.921Z,7.15
2023-03-13T02:53:20.449Z,7.30
2023-03-13T02:55:41.239Z,6.72
2023-03-13T02:58:01.467Z,7.10
2023-03-13T03:00:25.935Z,8.27
2023-03-13T03:02:46.357Z,8.25
2023-03-13T03:05:06.612Z,8.13
2023-03-13T03:07:26.982Z,8.23
2023-03-13T03:09:46.850Z,9.57
2023-03-13T03:12:07.352Z,7.25
2023-03-13T03:14:47.480Z,8.13
2023-03-13T03:17:07.990Z,10.02
2023-03-13T03:19:28.210Z,8.75
2023-03-13T03:21:48.956Z,8.05
2023-03-13T03:24:09.167Z,8.55
2023-03-13T03:26:29.299Z,8.60
2023-03-13T03:28:49.195Z,9.07
2023-03-13T03:31:11.039Z,8.13
2023-03-13T03:33:30.989Z,7.82
2023-03-13T03:35:51.216Z,7.15
2023-03-13T03:38:11.385Z,8.73
2023-03-13T03:40:31.470Z,8.05
2023-03-13T03:42:51.741Z,7.72
2023-03-13T03:45:11.883Z,8.02
2023-03-13T03:47:32.341Z,7.72
2023-03-13T03:49:52.379Z,7.35
2023-03-13T03:52:12.755Z,8.50
2023-03-13T03:54:32.869Z,7.78
2023-03-13T03:56:53.253Z,8.48
2023-03-13T03:59:13.215Z,6.60
2023-03-13T04:01:33.512Z,9.10
2023-03-13T04:03:53.681Z,7.65
2023-03-13T04:06:13.801Z,8.25
2023-03-13T04:08:33.987Z,8.48
2023-03-13T04:10:54.220Z,8.25
2023-03-13T04:13:14.600Z,8.13
2023-03-13T04:15:34.747Z,9.38
2023-03-13T04:17:54.928Z,9.20
2023-03-13T04:20:15.162Z,8.20
2023-03-13T04:22:35.478Z,10.48
2023-03-13T04:24:55.735Z,8.90
2023-03-13T04:27:16.075Z,7.78
2023-03-13T04:29:36.282Z,7.90
2023-03-13T04:31:56.632Z,7.75
2023-03-13T04:34:16.980Z,8.40
2023-03-13T04:36:37.324Z,8.75
2023-03-13T04:38:57.542Z,8.90
2023-03-13T04:41:17.671Z,8.43
2023-03-13T04:43:37.985Z,7.97
2023-03-13T04:45:58.449Z,9.60
2023-03-13T04:48:18.505Z,8.25
2023-03-13T04:50:38.878Z,7.60
2023-03-13T04:52:59.081Z,8.88
2023-03-13T04:55:19.269Z,7.60
2023-03-13T04:57:39.830Z,11.98
2023-03-13T05:00:00.158Z,12.90
2023-03-13T05:02:20.444Z,11.45
2023-03-13T05:04:41.003Z,9.23
2023-03-13T05:07:01.245Z,8.38
2023-03-13T05:09:21.449Z,8.80
2023-03-13T05:11:41.626Z,8.25
2023-03-13T05:14:01.907Z,7.95
2023-03-13T05:16:22.137Z,7.55
2023-03-13T05:18:42.466Z,8.63
2023-03-13T05:21:02.973Z,10.32
2023-03-13T05:23:22.939Z,8.32
2023-03-13T05:25:42.916Z,9.95
2023-03-13T05:28:03.317Z,9.00
2023-03-13T05:30:25.449Z,10.40
2023-03-13T05:32:45.593Z,10.07
2023-03-13T05:35:05.630Z,9.77
2023-03-13T05:37:25.765Z,10.80
2023-03-13T05:39:45.742Z,9.80
2023-03-13T05:42:05.887Z,10.23
2023-03-13T05:44:26.025Z,10.38
2023-03-13T05:46:46.046Z,10.77
2023-03-13T05:49:06.754Z,10.35
2023-03-13T05:51:26.762Z,10.15
2023-03-13T05:53:46.912Z,11.85
2023-03-13T05:56:07.335Z,10.18
2023-03-13T05:58:27.807Z,8.93
2023-03-13T06:00:48.140Z,9.85
2023-03-13T06:03:08.438Z,9.18
2023-03-13T06:05:28.655Z,10.73
2023-03-13T06:07:49.624Z,9.60
2023-03-13T06:10:10.473Z,10.15
2023-03-13T06:12:31.271Z,9.82
2023-03-13T06:14:51.363Z,8.90
2023-03-13T06:17:11.603Z,9.70
2023-03-13T06:19:32.094Z,9.05
2023-03-13T06:21:52.402Z,8.77
2023-03-13T06:24:12.694Z,8.73
2023-03-13T06:26:32.958Z,10.05
2023-03-13T06:28:53.111Z,12.75
2023-03-13T06:31:13.390Z,11.90
2023-03-13T06:33:34.493Z,10.57
2023-03-13T06:35:56.909Z,9.35
2023-03-13T06:38:17.361Z,9.40
2023-03-13T06:40:37.597Z,9.13
2023-03-13T06:42:58.291Z,10.27
2023-03-13T06:45:18.631Z,7.88
2023-03-13T06:47:38.926Z,8.38
2023-03-13T06:49:59.137Z,10.13
2023-03-13T06:52:20.641Z,16.23
2023-03-13T06:54:41.606Z,13.55
2023-03-13T06:57:01.677Z,16.95
2023-03-13T06:59:21.894Z,16.13
2023-03-13T07:01:42.169Z,15.75
2023-03-13T07:04:02.369Z,14.68
2023-03-13T07:06:22.615Z,8.45
2023-03-13T07:08:43.559Z,11.00
2023-03-13T07:11:05.685Z,11.32
2023-03-13T07:13:25.618Z,12.45
2023-03-13T07:15:45.936Z,13.48
2023-03-13T07:18:06.193Z,9.88
2023-03-13T07:20:26.271Z,11.30
2023-03-13T07:22:51.221Z,9.25
2023-03-13T07:25:10.938Z,14.57
2023-03-13T07:27:31.264Z,16.35
2023-03-13T07:29:51.690Z,9.43
2023-03-13T07:32:11.849Z,15.23
2023-03-13T07:34:31.906Z,49.53
2023-03-13T07:36:52.186Z,9.25
2023-03-13T07:39:12.341Z,6.95
2023-03-13T07:41:32.730Z,6.50
2023-03-13T07:43:52.863Z,9.38
2023-03-13T07:46:14.645Z,8.65
2023-03-13T07:48:36.143Z,9.93
2023-03-13T07:50:57.113Z,6.35
2023-03-13T07:53:20.705Z,5.35
2023-03-13T07:55:40.784Z,5.68
2023-03-13T07:58:00.925Z,7.30
2023-03-13T08:00:21.395Z,6.82
2023-03-13T08:02:41.507Z,7.47
2023-03-13T08:05:01.409Z,6.90
2023-03-13T08:07:21.586Z,7.63
2023-03-13T08:09:41.613Z,6.00
2023-03-13T08:12:01.853Z,5.65
2023-03-13T08:14:22.045Z,5.88
2023-03-13T08:16:42.222Z,8.77
2023-03-13T08:19:06.389Z,7.70
2023-03-13T08:21:30.522Z,5.75
2023-03-13T08:23:53.402Z,4.75
2023-03-13T08:28:34.462Z,4.07
2023-03-13T08:30:54.722Z,3.97
2023-03-13T08:33:14.911Z,4.22
2023-03-13T08:35:35.063Z,3.53
2023-03-13T08:37:55.294Z,4.13
2023-03-13T08:40:15.597Z,4.72
2023-03-13T08:42:36.277Z,4.50
2023-03-13T08:44:56.442Z,3.72
2023-03-13T08:47:17.603Z,4.07
2023-03-13T08:49:37.898Z,5.30
2023-03-13T08:51:58.063Z,4.63
2023-03-13T08:54:18.215Z,3.50
2023-03-13T08:56:40.264Z,3.60
2023-03-13T08:59:01.470Z,3.73
2023-03-13T09:01:22.908Z,3.28
2023-03-13T09:03:43.388Z,3.42
2023-03-13T09:06:03.987Z,3.72
2023-03-13T09:08:24.596Z,3.60
2023-03-13T09:10:44.705Z,3.20
2023-03-13T09:13:04.857Z,5.30
2023-03-13T09:15:25.185Z,3.17
2023-03-13T09:17:45.093Z,2.85
2023-03-13T09:20:05.543Z,2.72
2023-03-13T09:22:25.721Z,4.03
2023-03-13T09:24:45.760Z,3.17
2023-03-13T09:27:05.995Z,3.70
2023-03-13T09:29:26.182Z,3.83
2023-03-13T09:31:46.359Z,4.15
2023-03-13T09:34:06.348Z,3.28
2023-03-13T09:36:26.835Z,2.97
2023-03-13T09:38:47.117Z,2.88
2023-03-13T09:41:19.202Z,3.70
2023-03-13T09:44:08.887Z,4.05
2023-03-13T09:46:32.203Z,3.20
2023-03-13T09:48:57.565Z,2.50
2023-03-13T09:51:17.566Z,2.85
2023-03-13T09:53:43.687Z,2.05
2023-03-13T09:56:05.358Z,3.70
2023-03-13T09:58:28.646Z,3.78
2023-03-13T10:00:52.689Z,4.40
2023-03-13T10:03:31.986Z,3.22
2023-03-13T10:05:54.215Z,2.90
2023-03-13T10:08:23.019Z,2.63
2023-03-13T10:10:44.638Z,4.07
2023-03-13T10:13:13.267Z,3.83
2023-03-13T10:15:45.148Z,2.65
2023-03-13T10:18:14.152Z,3.90
2023-03-13T10:20:35.041Z,2.92
2023-03-13T10:22:57.904Z,4.30
2023-03-13T10:25:27.304Z,3.65
2023-03-13T10:27:51.319Z,3.40
2023-03-13T10:30:22.420Z,3.13
2023-03-13T10:32:42.735Z,2.72
2023-03-13T10:35:03.233Z,3.00
2023-03-13T10:37:28.114Z,2.78
2023-03-13T10:39:48.344Z,2.08
2023-03-13T10:42:20.709Z,2.17
2023-03-13T10:44:43.316Z,2.17
2023-03-13T10:47:04.324Z,10.98
2023-03-13T10:49:24.707Z,9.93
2023-03-13T10:51:53.059Z,2.80
2023-03-13T10:54:14.445Z,3.35
2023-03-13T10:56:34.503Z,3.15
2023-03-13T10:58:54.739Z,3.20
2023-03-13T11:01:17.862Z,2.88
2023-03-13T11:03:38.165Z,3.15
2023-03-13T11:06:00.168Z,3.10
2023-03-13T11:08:23.458Z,3.73
2023-03-13T11:10:51.843Z,3.10
2023-03-13T11:13:36.112Z,3.13
2023-03-13T11:15:59.280Z,2.83
2023-03-13T11:18:25.913Z,2.50
2023-03-13T11:20:46.789Z,2.70
2023-03-13T11:23:26.270Z,3.00
2023-03-13T11:25:53.048Z,2.90
2023-03-13T11:28:13.096Z,1.80
2023-03-13T11:30:58.234Z,3.10
2023-03-13T11:33:18.494Z,3.75
2023-03-13T11:35:56.876Z,3.15
2023-03-13T11:38:27.388Z,3.78
2023-03-13T11:41:06.824Z,2.95
2023-03-13T11:43:33.082Z,3.92
2023-03-13T11:45:53.394Z,2.75
2023-03-13T11:48:26.885Z,2.30
2023-03-13T11:50:55.179Z,2.67
2023-03-13T11:53:15.865Z,3.17
2023-03-13T11:55:56.634Z,1.88
2023-03-13T11:58:35.968Z,2.45
2023-03-13T12:01:14.929Z,3.42
2023-03-13T12:03:41.242Z,3.63
2023-03-13T12:06:02.611Z,4.45
2023-03-13T12:08:52.577Z,3.35
2023-03-13T12:11:12.897Z,3.58
2023-03-13T12:13:36.444Z,3.22
2023-03-13T12:16:01.580Z,2.15
2023-03-13T12:18:39.128Z,3.10
2023-03-13T12:21:04.874Z,3.50
2023-03-13T12:23:34.272Z,3.03
2023-03-13T12:25:57.836Z,2.10
2023-03-13T12:28:26.953Z,2.03
2023-03-13T12:31:10.392Z,2.65
2023-03-13T12:33:56.962Z,2.47
2023-03-13T12:36:28.594Z,2.88
2023-03-13T12:38:51.913Z,2.50
2023-03-13T12:41:24.233Z,2.00
2023-03-13T12:43:49.727Z,2.60
2023-03-13T12:46:17.870Z,1.23
2023-03-13T12:48:37.987Z,1.20
2023-03-13T12:50:58.174Z,2.55
2023-03-13T12:53:21.044Z,1.30
2023-03-13T12:55:51.870Z,1.25
2023-03-13T12:58:20.272Z,1.55
2023-03-13T13:00:41.803Z,2.25
2023-03-13T13:03:06.430Z,1.20
2023-03-13T13:05:26.933Z,1.35
2023-03-13T13:07:55.061Z,1.20
2023-03-13T13:10:21.324Z,1.50
2023-03-13T13:12:42.832Z,1.50
2023-03-13T13:15:21.539Z,1.95
2023-03-13T13:18:00.917Z,1.10
2023-03-13T13:20:29.691Z,1.85
2023-03-13T13:22:52.617Z,1.40
2023-03-13T13:25:13.107Z,1.30
2023-03-13T13:27:36.220Z,1.42
2023-03-13T13:29:57.389Z,1.20
2023-03-13T13:32:17.774Z,1.23
2023-03-13T13:34:37.813Z,1.50
2023-03-13T13:36:58.840Z,1.67
2023-03-13T13:39:34.177Z,1.45
2023-03-13T13:41:54.489Z,1.20
2023-03-13T13:44:20.213Z,1.35
2023-03-13T13:46:44.512Z,1.42
2023-03-13T13:49:07.588Z,1.63
2023-03-13T13:51:27.982Z,1.60
2023-03-13T13:53:56.202Z,2.55
2023-03-13T13:56:28.732Z,3.00
2023-03-13T13:58:49.691Z,1.30
2023-03-13T14:01:16.595Z,1.20
2023-03-13T14:03:41.467Z,1.30
2023-03-13T14:06:15.471Z,1.35
2023-03-13T14:08:38.706Z,1.92
2023-03-13T14:11:04.973Z,1.60
2023-03-13T14:13:24.958Z,2.08
2023-03-13T14:15:46.635Z,1.52
2023-03-13T14:18:12.637Z,1.27
2023-03-13T14:20:39.741Z,1.92
2023-03-13T14:23:01.742Z,1.55
2023-03-13T14:25:23.139Z,1.75
2023-03-13T14:27:47.127Z,1.50
2023-03-13T14:30:08.560Z,1.50
2023-03-13T14:32:28.609Z,1.30
2023-03-13T14:34:48.568Z,1.67
2023-03-13T14:37:28.820Z,1.70
2023-03-13T14:39:49.454Z,1.77
2023-03-13T14:42:11.233Z,1.65
2023-03-13T14:44:34.131Z,1.58
2023-03-13T14:47:04.268Z,1.95
2023-03-13T14:49:26.018Z,5.78
2023-03-13T14:51:46.608Z,2.50
2023-03-13T14:54:06.828Z,2.22
2023-03-13T14:56:37.461Z,1.85
2023-03-13T14:59:06.756Z,2.15
2023-03-13T15:01:30.839Z,2.13
2023-03-13T15:03:51.763Z,1.95
2023-03-13T15:06:12.003Z,1.88
2023-03-13T15:08:32.148Z,1.77
2023-03-13T15:10:52.301Z,2.22
2023-03-13T15:13:33.856Z,2.47
2023-03-13T15:15:54.144Z,1.80
2023-03-13T15:18:34.331Z,1.30
2023-03-13T15:20:59.482Z,1.40
2023-03-13T15:23:20.162Z,1.73
2023-03-13T15:25:40.772Z,1.70
2023-03-13T15:28:00.527Z,2.70
2023-03-13T15:30:24.901Z,1.30
2023-03-13T15:32:46.238Z,2.63
2023-03-13T15:35:18.928Z,2.47
2023-03-13T15:37:39.107Z,1.25
2023-03-13T15:39:59.352Z,2.30
2023-03-13T15:42:19.352Z,1.58
2023-03-13T15:44:39.540Z,2.03
2023-03-13T15:46:59.562Z,1.65
2023-03-13T15:49:19.653Z,1.80
2023-03-13T15:51:39.927Z,1.42
2023-03-13T15:54:00.209Z,1.67
2023-03-13T15:56:24.576Z,1.90
2023-03-13T15:58:45.099Z,1.45
2023-03-13T16:01:05.041Z,1.20
2023-03-13T16:03:26.599Z,1.70
2023-03-13T16:05:48.317Z,1.35
2023-03-13T16:08:11.100Z,1.55
2023-03-13T16:10:31.799Z,1.60
2023-03-13T16:12:52.782Z,1.60
2023-03-13T16:15:13.080Z,3.00
2023-03-13T16:17:33.332Z,2.13
2023-03-13T16:19:54.952Z,1.60
2023-03-13T16:22:15.352Z,2.33
2023-03-13T16:24:35.589Z,1.50
2023-03-13T16:26:55.804Z,1.52
2023-03-13T16:29:16.497Z,2.15
2023-03-13T16:31:36.680Z,1.65
2023-03-13T16:33:57.263Z,2.00
2023-03-13T16:36:19.217Z,2.25
2023-03-13T16:38:39.691Z,1.40
2023-03-13T16:41:00.151Z,1.58
2023-03-13T16:43:20.119Z,2.38
2023-03-13T16:45:40.342Z,1.90
2023-03-13T16:48:00.572Z,2.42
2023-03-13T16:50:20.821Z,3.28
2023-03-13T16:52:40.878Z,2.25
2023-03-13T16:55:00.966Z,2.45
2023-03-13T16:57:25.637Z,2.25
2023-03-13T16:59:45.974Z,1.33
2023-03-13T17:02:13.628Z,1.38
2023-03-13T17:04:34.097Z,1.80
2023-03-13T17:06:54.312Z,1.73
2023-03-13T17:09:16.055Z,1.67
2023-03-13T17:11:36.367Z,2.73
2023-03-13T17:13:56.536Z,1.88
2023-03-13T17:16:18.453Z,3.00
2023-03-13T17:18:38.446Z,3.78
2023-03-13T17:20:58.603Z,3.75
2023-03-13T17:23:18.514Z,2.90
2023-03-13T17:25:39.692Z,2.33
2023-03-13T17:27:59.764Z,2.47
2023-03-13T17:30:29.756Z,2.42
2023-03-13T17:32:50.721Z,2.15
2023-03-13T17:35:11.049Z,1.95
2023-03-13T17:37:31.289Z,2.30
2023-03-13T17:39:51.609Z,2.55
2023-03-13T17:42:12.273Z,2.97
2023-03-13T17:44:32.622Z,3.03
2023-03-13T17:46:53.074Z,3.38
2023-03-13T17:49:14.115Z,3.47
2023-03-13T17:51:35.594Z,2.80
2023-03-13T17:53:57.186Z,4.32
2023-03-13T17:56:27.240Z,4.30
2023-03-13T17:58:49.637Z,3.38
2023-03-13T18:01:11.668Z,2.60
2023-03-13T18:03:31.801Z,2.23
2023-03-13T18:05:51.967Z,3.25
2023-03-13T18:08:12.219Z,1.85
2023-03-13T18:10:32.123Z,2.10
2023-03-13T18:12:52.764Z,2.13
2023-03-13T18:15:13.008Z,3.28
2023-03-13T18:17:33.161Z,3.60
2023-03-13T18:19:53.380Z,4.15
2023-03-13T18:22:15.124Z,3.78
2023-03-13T18:24:35.201Z,3.65
2023-03-13T18:26:55.377Z,2.88
2023-03-13T18:29:19.509Z,2.90
2023-03-13T18:31:42.814Z,2.03
2023-03-13T18:34:04.529Z,2.67
2023-03-13T18:36:26.139Z,2.00
2023-03-13T18:38:48.249Z,2.80
2023-03-13T18:41:10.100Z,2.85
2023-03-13T18:43:30.538Z,2.10
2023-03-13T18:45:50.726Z,2.63
2023-03-13T18:48:11.113Z,2.42
2023-03-13T18:50:32.409Z,1.90
2023-03-13T18:52:54.612Z,2.47
2023-03-13T18:55:15.150Z,2.47
2023-03-13T18:57:35.157Z,3.17
2023-03-13T18:59:55.161Z,5.63
2023-03-13T19:02:16.349Z,4.45
2023-03-13T19:04:36.269Z,4.63
2023-03-13T19:06:56.516Z,3.58
2023-03-13T19:09:41.484Z,3.97
2023-03-13T19:11:57.940Z,2.42
2023-03-13T19:14:18.168Z,3.08
2023-03-13T19:16:44.276Z,2.55
2023-03-13T19:19:05.394Z,3.78
2023-03-13T19:21:26.966Z,2.80
2023-03-13T19:23:48.688Z,2.78
2023-03-13T19:26:16.609Z,3.10
2023-03-13T19:28:36.909Z,3.33
2023-03-13T19:30:56.824Z,3.03
2023-03-13T19:33:17.060Z,2.65
2023-03-13T19:35:37.251Z,3.42
2023-03-13T19:37:57.177Z,3.03
2023-03-13T19:40:22.530Z,2.97
2023-03-13T19:42:42.570Z,2.60
2023-03-13T19:45:05.242Z,2.95
2023-03-13T19:47:25.438Z,3.17
2023-03-13T19:49:49.050Z,2.88
2023-03-13T19:52:09.398Z,3.17
2023-03-13T19:54:29.574Z,2.78
2023-03-13T19:56:50.177Z,2.28
2023-03-13T19:59:13.302Z,2.63
2023-03-13T20:01:33.806Z,2.80
2023-03-13T20:03:54.272Z,2.50
2023-03-13T20:06:19.225Z,3.03
2023-03-13T20:08:39.172Z,3.95
2023-03-13T20:10:59.453Z,2.70
2023-03-13T20:13:19.713Z,3.28
2023-03-13T20:15:40.003Z,3.22
2023-03-13T20:18:00.022Z,2.78
2023-03-13T20:20:20.347Z,2.42
2023-03-13T20:22:40.570Z,3.15
2023-03-13T20:25:00.809Z,3.90
2023-03-13T20:27:21.058Z,2.58
2023-03-13T20:29:41.496Z,3.25
2023-03-13T20:32:03.949Z,2.08
2023-03-13T20:34:23.868Z,3.58
2023-03-13T20:36:44.035Z,2.85
2023-03-13T20:39:04.796Z,2.75
2023-03-13T20:41:30.225Z,2.90
2023-03-13T20:43:50.661Z,3.20
2023-03-13T20:46:11.071Z,4.03
2023-03-13T20:48:30.990Z,3.78
2023-03-13T20:50:51.897Z,3.30
2023-03-13T20:53:14.300Z,3.47
2023-03-13T20:55:34.261Z,3.30
2023-03-13T20:57:54.452Z,3.15
2023-03-13T21:00:14.912Z,3.85
2023-03-13T21:02:35.197Z,3.60
2023-03-13T21:04:55.475Z,4.13
2023-03-13T21:07:15.630Z,3.58
2023-03-13T21:09:35.880Z,4.32
2023-03-13T21:11:55.894Z,2.83
2023-03-13T21:14:16.042Z,3.75
2023-03-13T21:16:36.338Z,3.83
2023-03-13T21:18:56.667Z,4.18
2023-03-13T21:21:18.236Z,5.30
2023-03-13T21:23:38.636Z,5.32
2023-03-13T21:25:59.839Z,2.60
2023-03-13T21:28:20.853Z,3.88
2023-03-13T21:30:40.972Z,2.47
2023-03-13T21:33:01.068Z,3.40
2023-03-13T21:35:21.403Z,3.67
2023-03-13T21:37:42.148Z,4.70
2023-03-13T21:40:03.716Z,3.40
2023-03-13T21:42:23.836Z,2.15
2023-03-13T21:44:44.866Z,3.05
2023-03-13T21:47:05.585Z,2.80
2023-03-13T21:49:25.656Z,3.13
2023-03-13T21:51:45.901Z,2.33
2023-03-13T21:54:06.128Z,2.70
2023-03-13T21:56:26.546Z,3.47
2023-03-13T21:58:47.108Z,2.75
2023-03-13T22:01:07.622Z,2.92
2023-03-13T22:03:28.015Z,2.80
2023-03-13T22:05:48.157Z,2.40
2023-03-13T22:08:08.360Z,2.38
2023-03-13T22:10:28.466Z,2.40
2023-03-13T22:12:48.942Z,1.98
2023-03-13T22:15:09.236Z,2.60
2023-03-13T22:17:29.362Z,4.45
2023-03-13T22:19:49.845Z,3.13
2023-03-13T22:22:10.220Z,1.98
2023-03-13T22:24:30.336Z,3.42
2023-03-13T22:26:50.650Z,2.50
2023-03-13T22:29:10.959Z,2.35
2023-03-13T22:31:31.258Z,2.38
2023-03-13T22:33:51.379Z,2.80
2023-03-13T22:36:11.867Z,3.10
2023-03-13T22:38:38.008Z,2.88
2023-03-13T22:40:59.405Z,3.20
2023-03-13T22:43:19.640Z,3.13
2023-03-13T22:45:40.995Z,2.45
2023-03-13T22:48:05.805Z,2.72
2023-03-13T22:50:27.263Z,4.25
2023-03-13T22:52:47.683Z,2.47
2023-03-13T22:55:07.938Z,3.22
2023-03-13T22:57:28.452Z,3.22
2023-03-13T22:59:48.631Z,2.42
2023-03-13T23:02:08.654Z,3.08
2023-03-13T23:04:28.697Z,3.08
2023-03-13T23:06:48.799Z,3.15
2023-03-13T23:09:09.119Z,2.92
2023-03-13T23:11:29.283Z,3.97
2023-03-13T23:13:49.280Z,3.75
2023-03-13T23:16:10.747Z,2.63
2023-03-13T23:18:30.879Z,3.25
2023-03-13T23:20:51.262Z,3.97
2023-03-13T23:23:11.196Z,3.55
2023-03-13T23:25:31.382Z,3.22
2023-03-13T23:27:51.690Z,3.60
2023-03-13T23:30:13.149Z,4.63
2023-03-13T23:32:37.101Z,3.55
2023-03-13T23:34:57.835Z,3.47
2023-03-13T23:37:18.014Z,2.83
2023-03-13T23:39:38.219Z,3.75
2023-03-13T23:41:58.403Z,4.57
2023-03-13T23:44:18.575Z,4.63
2023-03-13T23:46:38.480Z,3.28
2023-03-13T23:48:58.949Z,2.90
2023-03-13T23:51:19.286Z,4.03
2023-03-13T23:53:40.303Z,4.10
2023-03-13T23:56:00.373Z,3.88
2023-03-13T23:58:20.569Z,3.50
